sensor_id;sensor_type;location;lat;lon;timestamp;P1;durP1;ratioP1;P2;durP2;ratioP2
77432;SDS011;66752;48.576;8.876;2023-03-15T00:00:27;5.30;;;1.60;;
77432;SDS011;66752;48.576;8.876;2023-03-15T00:02:53;4.82;;;1.58;;
77432;SDS011;66752;48.576;8.876;2023-03-15T00:05:19;4.20;;;1.42;;
77432;SDS011;66752;48.576;8.876;2023-03-15T00:07:45;4.80;;;1.38;;
77432;SDS011;66752;48.576;8.876;2023-03-15T00:10:11;4.72;;;1.20;;
77432;SDS011;66752;48.576;8.876;2023-03-15T00:12:37;5.63;;;1.33;;
77432;SDS011;66752;48.576;8.876;2023-03-15T00:15:03;3.63;;;1.10;;
77432;SDS011;66752;48.576;8.876;2023-03-15T00:17:29;8.18;;;2.20;;
77432;SDS011;66752;48.576;8.876;2023-03-15T00:19:58;4.53;;;1.50;;
77432;SDS011;66752;48.576;8.876;2023-03-15T00:22:24;6.03;;;1.25;;
77432;SDS011;66752;48.576;8.876;2023-03-15T00:24:50;6.22;;;1.73;;
77432;SDS011;66752;48.576;8.876;2023-03-15T00:27:16;2.67;;;0.98;;
77432;SDS011;66752;48.576;8.876;2023-03-15T00:29:42;4.55;;;1.55;;
77432;SDS011;66752;48.576;8.876;2023-03-15T00:32:08;4.75;;;1.35;;
77432;SDS011;66752;48.576;8.876;2023-03-15T00:34:34;4.38;;;1.60;;
77432;SDS011;66752;48.576;8.876;2023-03-15T00:37:00;4.13;;;1.20;;
77432;SDS011;66752;48.576;8.876;2023-03-15T00:39:27;3.58;;;1.05;;
77432;SDS011;66752;48.576;8.876;2023-03-15T00:41:53;4.13;;;1.35;;
77432;SDS011;66752;48.576;8.876;2023-03-15T00:44:21;3.72;;;1.30;;
77432;SDS011;66752;48.576;8.876;2023-03-15T00:46:47;4.68;;;1.30;;
77432;SDS011;66752;48.576;8.876;2023-03-15T00:49:13;5.72;;;1.67;;
77432;SDS011;66752;48.576;8.876;2023-03-15T00:51:39;4.10;;;1.17;;
77432;SDS011;66752;48.576;8.876;2023-03-15T00:54:05;4.50;;;1.20;;
77432;SDS011;66752;48.576;8.876;2023-03-15T00:56:31;6.40;;;1.67;;
77432;SDS011;66752;48.576;8.876;2023-03-15T00:58:57;5.97;;;1.60;;
77432;SDS011;66752;48.576;8.876;2023-03-15T01:01:24;6.25;;;1.45;;
77432;SDS011;66752;48.576;8.876;2023-03-15T01:03:50;5.22;;;1.67;;
77432;SDS011;66752;48.576;8.876;2023-03-15T01:06:19;3.80;;;1.40;;
77432;SDS011;66752;48.576;8.876;2023-03-15T01:08:45;4.95;;;1.27;;
77432;SDS011;66752;48.576;8.876;2023-03-15T01:11:12;5.63;;;1.58;;
77432;SDS011;66752;48.576;8.876;2023-03-15T01:16:05;3.67;;;1.23;;
77432;SDS011;66752;48.576;8.876;2023-03-15T01:18:31;5.07;;;1.58;;
77432;SDS011;66752;48.576;8.876;2023-03-15T01:20:57;5.70;;;1.88;;
77432;SDS011;66752;48.576;8.876;2023-03-15T01:23:23;7.25;;;1.85;;
77432;SDS011;66752;48.576;8.876;2023-03-15T01:25:49;5.10;;;1.55;;
77432;SDS011;66752;48.576;8.876;2023-03-15T01:28:15;4.90;;;1.30;;
77432;SDS011;66752;48.576;8.876;2023-03-15T01:30:51;4.13;;;1.30;;
77432;SDS011;66752;48.576;8.876;2023-03-15T01:33:17;4.88;;;1.30;;
77432;SDS011;66752;48.576;8.876;2023-03-15T01:35:43;5.88;;;1.33;;
77432;SDS011;66752;48.576;8.876;2023-03-15T01:38:09;5.55;;;1.33;;
77432;SDS011;66752;48.576;8.876;2023-03-15T01:40:42;4.43;;;1.15;;
77432;SDS011;66752;48.576;8.876;2023-03-15T01:53:54;4.05;;;1.20;;
77432;SDS011;66752;48.576;8.876;2023-03-15T01:56:22;5.70;;;1.40;;
77432;SDS011;66752;48.576;8.876;2023-03-15T01:58:49;4.55;;;0.95;;
77432;SDS011;66752;48.576;8.876;2023-03-15T02:01:15;4.60;;;1.40;;
77432;SDS011;66752;48.576;8.876;2023-03-15T02:03:42;6.97;;;1.55;;
77432;SDS011;66752;48.576;8.876;2023-03-15T02:06:10;8.23;;;1.40;;
77432;SDS011;66752;48.576;8.876;2023-03-15T02:08:42;3.80;;;1.15;;
77432;SDS011;66752;48.576;8.876;2023-03-15T02:11:08;3.97;;;1.13;;
77432;SDS011;66752;48.576;8.876;2023-03-15T02:13:35;4.13;;;1.33;;
77432;SDS011;66752;48.576;8.876;2023-03-15T02:16:01;5.78;;;1.63;;
77432;SDS011;66752;48.576;8.876;2023-03-15T02:18:30;2.53;;;1.02;;
77432;SDS011;66752;48.576;8.876;2023-03-15T02:23:25;5.53;;;1.30;;
77432;SDS011;66752;48.576;8.876;2023-03-15T02:28:33;6.32;;;1.20;;
77432;SDS011;66752;48.576;8.876;2023-03-15T02:30:59;3.75;;;1.33;;
77432;SDS011;66752;48.576;8.876;2023-03-15T02:33:32;4.57;;;1.60;;
77432;SDS011;66752;48.576;8.876;2023-03-15T02:38:58;5.72;;;1.33;;
77432;SDS011;66752;48.576;8.876;2023-03-15T02:41:29;4.40;;;1.05;;
77432;SDS011;66752;48.576;8.876;2023-03-15T02:43:57;6.32;;;1.70;;
77432;SDS011;66752;48.576;8.876;2023-03-15T02:46:24;6.00;;;1.48;;
77432;SDS011;66752;48.576;8.876;2023-03-15T02:48:50;3.70;;;1.55;;
77432;SDS011;66752;48.576;8.876;2023-03-15T02:51:19;6.50;;;2.25;;
77432;SDS011;66752;48.576;8.876;2023-03-15T02:53:45;5.15;;;1.40;;
77432;SDS011;66752;48.576;8.876;2023-03-15T02:56:11;5.03;;;1.67;;
77432;SDS011;66752;48.576;8.876;2023-03-15T02:58:38;6.28;;;1.60;;
77432;SDS011;66752;48.576;8.876;2023-03-15T03:01:04;4.90;;;1.60;;
77432;SDS011;66752;48.576;8.876;2023-03-15T03:03:30;4.78;;;1.50;;
77432;SDS011;66752;48.576;8.876;2023-03-15T03:05:56;5.65;;;1.58;;
77432;SDS011;66752;48.576;8.876;2023-03-15T03:08:22;4.85;;;1.83;;
77432;SDS011;66752;48.576;8.876;2023-03-15T03:10:48;5.57;;;1.40;;
77432;SDS011;66752;48.576;8.876;2023-03-15T03:13:14;4.72;;;1.50;;
77432;SDS011;66752;48.576;8.876;2023-03-15T03:15:40;4.60;;;1.60;;
77432;SDS011;66752;48.576;8.876;2023-03-15T03:18:09;4.95;;;1.42;;
77432;SDS011;66752;48.576;8.876;2023-03-15T03:20:35;5.30;;;1.65;;
77432;SDS011;66752;48.576;8.876;2023-03-15T03:23:01;4.40;;;1.75;;
77432;SDS011;66752;48.576;8.876;2023-03-15T03:25:30;5.65;;;1.20;;
77432;SDS011;66752;48.576;8.876;2023-03-15T03:27:57;4.95;;;1.45;;
77432;SDS011;66752;48.576;8.876;2023-03-15T03:30:23;3.92;;;1.35;;
77432;SDS011;66752;48.576;8.876;2023-03-15T03:32:49;4.43;;;1.50;;
77432;SDS011;66752;48.576;8.876;2023-03-15T03:35:15;4.22;;;1.48;;
77432;SDS011;66752;48.576;8.876;2023-03-15T03:37:41;8.55;;;2.08;;
77432;SDS011;66752;48.576;8.876;2023-03-15T03:40:07;8.15;;;1.70;;
77432;SDS011;66752;48.576;8.876;2023-03-15T03:42:34;4.47;;;1.40;;
77432;SDS011;66752;48.576;8.876;2023-03-15T03:45:00;6.35;;;1.88;;
77432;SDS011;66752;48.576;8.876;2023-03-15T03:47:25;4.13;;;1.60;;
77432;SDS011;66752;48.576;8.876;2023-03-15T03:49:51;3.78;;;1.63;;
77432;SDS011;66752;48.576;8.876;2023-03-15T03:52:17;4.82;;;1.58;;
77432;SDS011;66752;48.576;8.876;2023-03-15T03:54:43;5.45;;;1.90;;
77432;SDS011;66752;48.576;8.876;2023-03-15T03:57:09;5.75;;;2.10;;
77432;SDS011;66752;48.576;8.876;2023-03-15T03:59:35;7.43;;;2.05;;
77432;SDS011;66752;48.576;8.876;2023-03-15T04:02:01;4.93;;;1.90;;
77432;SDS011;66752;48.576;8.876;2023-03-15T04:04:27;5.95;;;1.85;;
77432;SDS011;66752;48.576;8.876;2023-03-15T04:06:53;4.53;;;1.90;;
77432;SDS011;66752;48.576;8.876;2023-03-15T04:09:19;7.55;;;3.00;;
77432;SDS011;66752;48.576;8.876;2023-03-15T04:11:46;5.20;;;2.70;;
77432;SDS011;66752;48.576;8.876;2023-03-15T04:14:12;6.38;;;3.20;;
77432;SDS011;66752;48.576;8.876;2023-03-15T04:16:39;6.72;;;3.05;;
77432;SDS011;66752;48.576;8.876;2023-03-15T04:19:05;7.53;;;3.20;;
77432;SDS011;66752;48.576;8.876;2023-03-15T04:21:32;5.40;;;2.20;;
77432;SDS011;66752;48.576;8.876;2023-03-15T04:23:58;6.78;;;2.40;;
77432;SDS011;66752;48.576;8.876;2023-03-15T04:26:24;8.95;;;2.47;;
77432;SDS011;66752;48.576;8.876;2023-03-15T04:28:53;6.70;;;2.40;;
77432;SDS011;66752;48.576;8.876;2023-03-15T04:31:20;9.63;;;2.50;;
77432;SDS011;66752;48.576;8.876;2023-03-15T04:33:46;5.00;;;2.20;;
77432;SDS011;66752;48.576;8.876;2023-03-15T04:36:12;11.10;;;2.97;;
77432;SDS011;66752;48.576;8.876;2023-03-15T04:38:43;9.52;;;2.95;;
77432;SDS011;66752;48.576;8.876;2023-03-15T04:41:10;6.95;;;2.38;;
77432;SDS011;66752;48.576;8.876;2023-03-15T04:43:36;9.55;;;3.10;;
77432;SDS011;66752;48.576;8.876;2023-03-15T04:46:02;6.45;;;2.53;;
77432;SDS011;66752;48.576;8.876;2023-03-15T04:48:28;6.60;;;2.30;;
77432;SDS011;66752;48.576;8.876;2023-03-15T04:50:55;6.22;;;2.05;;
77432;SDS011;66752;48.576;8.876;2023-03-15T04:53:20;6.28;;;2.58;;
77432;SDS011;66752;48.576;8.876;2023-03-15T04:55:46;5.35;;;2.40;;
77432;SDS011;66752;48.576;8.876;2023-03-15T04:58:12;6.18;;;2.40;;
77432;SDS011;66752;48.576;8.876;2023-03-15T05:00:38;8.70;;;2.92;;
77432;SDS011;66752;48.576;8.876;2023-03-15T05:03:04;12.48;;;3.60;;
77432;SDS011;66752;48.576;8.876;2023-03-15T05:05:31;8.93;;;3.45;;
77432;SDS011;66752;48.576;8.876;2023-03-15T05:07:57;9.50;;;3.85;;
77432;SDS011;66752;48.576;8.876;2023-03-15T05:10:23;9.82;;;3.53;;
77432;SDS011;66752;48.576;8.876;2023-03-15T05:12:50;6.70;;;2.65;;
77432;SDS011;66752;48.576;8.876;2023-03-15T05:15:16;7.65;;;2.72;;
77432;SDS011;66752;48.576;8.876;2023-03-15T05:17:42;9.13;;;2.72;;
77432;SDS011;66752;48.576;8.876;2023-03-15T05:20:10;6.40;;;2.85;;
77432;SDS011;66752;48.576;8.876;2023-03-15T05:22:37;6.88;;;2.78;;
77432;SDS011;66752;48.576;8.876;2023-03-15T05:25:03;10.23;;;2.90;;
77432;SDS011;66752;48.576;8.876;2023-03-15T05:27:29;8.60;;;3.10;;
77432;SDS011;66752;48.576;8.876;2023-03-15T05:29:58;9.50;;;3.42;;
77432;SDS011;66752;48.576;8.876;2023-03-15T05:32:26;6.38;;;2.97;;
77432;SDS011;66752;48.576;8.876;2023-03-15T05:34:52;6.75;;;3.30;;
77432;SDS011;66752;48.576;8.876;2023-03-15T05:37:21;7.38;;;2.85;;
77432;SDS011;66752;48.576;8.876;2023-03-15T05:39:48;6.22;;;2.97;;
77432;SDS011;66752;48.576;8.876;2023-03-15T05:42:14;8.60;;;4.00;;
77432;SDS011;66752;48.576;8.876;2023-03-15T05:44:45;10.60;;;3.78;;
77432;SDS011;66752;48.576;8.876;2023-03-15T05:47:11;11.95;;;4.68;;
77432;SDS011;66752;48.576;8.876;2023-03-15T05:49:37;8.18;;;3.55;;
77432;SDS011;66752;48.576;8.876;2023-03-15T05:52:03;11.55;;;3.88;;
77432;SDS011;66752;48.576;8.876;2023-03-15T05:54:29;8.88;;;4.00;;
77432;SDS011;66752;48.576;8.876;2023-03-15T05:56:55;10.00;;;4.00;;
77432;SDS011;66752;48.576;8.876;2023-03-15T05:59:21;9.55;;;3.28;;
77432;SDS011;66752;48.576;8.876;2023-03-15T06:01:47;7.85;;;3.15;;
77432;SDS011;66752;48.576;8.876;2023-03-15T06:04:13;7.03;;;2.92;;
77432;SDS011;66752;48.576;8.876;2023-03-15T06:06:39;8.25;;;2.70;;
77432;SDS011;66752;48.576;8.876;2023-03-15T06:09:05;9.07;;;2.60;;
77432;SDS011;66752;48.576;8.876;2023-03-15T06:11:31;8.75;;;2.75;;
77432;SDS011;66752;48.576;8.876;2023-03-15T06:13:57;6.18;;;2.65;;
77432;SDS011;66752;48.576;8.876;2023-03-15T06:16:23;6.22;;;2.97;;
77432;SDS011;66752;48.576;8.876;2023-03-15T06:18:49;10.73;;;3.60;;
77432;SDS011;66752;48.576;8.876;2023-03-15T06:21:15;10.48;;;3.85;;
77432;SDS011;66752;48.576;8.876;2023-03-15T06:23:41;9.00;;;3.88;;
77432;SDS011;66752;48.576;8.876;2023-03-15T06:26:07;10.75;;;4.93;;
77432;SDS011;66752;48.576;8.876;2023-03-15T06:28:33;8.98;;;4.43;;
77432;SDS011;66752;48.576;8.876;2023-03-15T06:31:03;11.02;;;5.95;;
77432;SDS011;66752;48.576;8.876;2023-03-15T06:33:29;13.43;;;6.43;;
77432;SDS011;66752;48.576;8.876;2023-03-15T06:35:55;9.98;;;3.53;;
77432;SDS011;66752;48.576;8.876;2023-03-15T06:38:21;8.32;;;3.63;;
77432;SDS011;66752;48.576;8.876;2023-03-15T06:40:47;7.93;;;3.90;;
77432;SDS011;66752;48.576;8.876;2023-03-15T06:43:13;10.43;;;4.20;;
77432;SDS011;66752;48.576;8.876;2023-03-15T06:45:43;12.80;;;4.28;;
77432;SDS011;66752;48.576;8.876;2023-03-15T06:48:09;12.88;;;4.78;;
77432;SDS011;66752;48.576;8.876;2023-03-15T06:50:35;6.85;;;3.50;;
77432;SDS011;66752;48.576;8.876;2023-03-15T06:53:01;8.95;;;3.80;;
77432;SDS011;66752;48.576;8.876;2023-03-15T06:55:27;9.93;;;3.22;;
77432;SDS011;66752;48.576;8.876;2023-03-15T06:57:53;13.68;;;3.00;;
77432;SDS011;66752;48.576;8.876;2023-03-15T07:00:19;7.45;;;3.90;;
77432;SDS011;66752;48.576;8.876;2023-03-15T07:02:46;7.47;;;3.38;;
77432;SDS011;66752;48.576;8.876;2023-03-15T07:05:12;10.25;;;3.20;;
77432;SDS011;66752;48.576;8.876;2023-03-15T07:07:38;6.47;;;2.88;;
77432;SDS011;66752;48.576;8.876;2023-03-15T07:10:04;8.98;;;3.15;;
77432;SDS011;66752;48.576;8.876;2023-03-15T07:12:31;7.28;;;2.67;;
77432;SDS011;66752;48.576;8.876;2023-03-15T07:14:57;7.25;;;3.13;;
77432;SDS011;66752;48.576;8.876;2023-03-15T07:17:23;6.00;;;2.72;;
77432;SDS011;66752;48.576;8.876;2023-03-15T07:19:49;7.78;;;3.03;;
77432;SDS011;66752;48.576;8.876;2023-03-15T07:22:16;7.38;;;2.83;;
77432;SDS011;66752;48.576;8.876;2023-03-15T07:24:42;8.75;;;3.85;;
77432;SDS011;66752;48.576;8.876;2023-03-15T07:27:10;11.48;;;4.38;;
77432;SDS011;66752;48.576;8.876;2023-03-15T07:29:36;8.05;;;3.20;;
77432;SDS011;66752;48.576;8.876;2023-03-15T07:32:02;6.93;;;2.75;;
77432;SDS011;66752;48.576;8.876;2023-03-15T07:34:28;10.45;;;3.00;;
77432;SDS011;66752;48.576;8.876;2023-03-15T07:36:54;5.82;;;2.85;;
77432;SDS011;66752;48.576;8.876;2023-03-15T07:39:20;8.85;;;2.78;;
77432;SDS011;66752;48.576;8.876;2023-03-15T07:41:47;6.53;;;2.47;;
77432;SDS011;66752;48.576;8.876;2023-03-15T07:44:13;9.73;;;3.00;;
77432;SDS011;66752;48.576;8.876;2023-03-15T07:46:39;7.57;;;2.85;;
77432;SDS011;66752;48.576;8.876;2023-03-15T07:49:05;7.07;;;3.10;;
77432;SDS011;66752;48.576;8.876;2023-03-15T07:51:31;7.82;;;2.45;;
77432;SDS011;66752;48.576;8.876;2023-03-15T07:53:57;5.80;;;2.80;;
77432;SDS011;66752;48.576;8.876;2023-03-15T07:56:23;6.57;;;2.70;;
77432;SDS011;66752;48.576;8.876;2023-03-15T07:58:48;7.32;;;2.63;;
77432;SDS011;66752;48.576;8.876;2023-03-15T08:01:14;8.90;;;2.90;;
77432;SDS011;66752;48.576;8.876;2023-03-15T08:03:40;5.57;;;2.70;;
77432;SDS011;66752;48.576;8.876;2023-03-15T08:06:06;7.22;;;2.38;;
77432;SDS011;66752;48.576;8.876;2023-03-15T08:08:32;4.25;;;1.80;;
77432;SDS011;66752;48.576;8.876;2023-03-15T08:10:58;5.35;;;2.55;;
77432;SDS011;66752;48.576;8.876;2023-03-15T08:13:24;6.60;;;2.67;;
77432;SDS011;66752;48.576;8.876;2023-03-15T08:15:50;6.90;;;2.35;;
77432;SDS011;66752;48.576;8.876;2023-03-15T08:18:16;5.80;;;2.20;;
77432;SDS011;66752;48.576;8.876;2023-03-15T08:20:42;8.70;;;2.50;;
77432;SDS011;66752;48.576;8.876;2023-03-15T08:23:08;5.95;;;2.13;;
77432;SDS011;66752;48.576;8.876;2023-03-15T08:25:40;4.00;;;1.73;;
77432;SDS011;66752;48.576;8.876;2023-03-15T08:28:06;8.00;;;2.45;;
77432;SDS011;66752;48.576;8.876;2023-03-15T08:30:32;9.15;;;2.47;;
77432;SDS011;66752;48.576;8.876;2023-03-15T08:32:58;4.97;;;1.90;;
77432;SDS011;66752;48.576;8.876;2023-03-15T08:35:24;6.78;;;2.30;;
77432;SDS011;66752;48.576;8.876;2023-03-15T08:37:50;9.70;;;2.72;;
77432;SDS011;66752;48.576;8.876;2023-03-15T08:40:17;8.27;;;2.15;;
77432;SDS011;66752;48.576;8.876;2023-03-15T08:42:49;6.88;;;1.90;;
77432;SDS011;66752;48.576;8.876;2023-03-15T08:45:15;5.95;;;2.10;;
77432;SDS011;66752;48.576;8.876;2023-03-15T08:47:41;6.70;;;1.60;;
77432;SDS011;66752;48.576;8.876;2023-03-15T08:50:08;5.78;;;1.73;;
77432;SDS011;66752;48.576;8.876;2023-03-15T08:52:36;5.38;;;1.45;;
77432;SDS011;66752;48.576;8.876;2023-03-15T08:55:02;6.55;;;1.75;;
77432;SDS011;66752;48.576;8.876;2023-03-15T08:57:28;4.30;;;2.17;;
77432;SDS011;66752;48.576;8.876;2023-03-15T08:59:57;7.57;;;2.03;;
77432;SDS011;66752;48.576;8.876;2023-03-15T09:02:23;4.07;;;1.23;;
77432;SDS011;66752;48.576;8.876;2023-03-15T09:04:49;5.38;;;1.88;;
77432;SDS011;66752;48.576;8.876;2023-03-15T09:07:15;5.82;;;1.50;;
77432;SDS011;66752;48.576;8.876;2023-03-15T09:09:41;7.10;;;1.65;;
77432;SDS011;66752;48.576;8.876;2023-03-15T09:12:13;4.10;;;1.35;;
77432;SDS011;66752;48.576;8.876;2023-03-15T09:14:39;3.90;;;1.38;;
77432;SDS011;66752;48.576;8.876;2023-03-15T09:17:05;5.82;;;1.50;;
77432;SDS011;66752;48.576;8.876;2023-03-15T09:19:31;5.10;;;1.45;;
77432;SDS011;66752;48.576;8.876;2023-03-15T09:21:57;4.85;;;1.40;;
77432;SDS011;66752;48.576;8.876;2023-03-15T09:24:23;3.22;;;1.10;;
77432;SDS011;66752;48.576;8.876;2023-03-15T09:26:49;4.78;;;1.90;;
77432;SDS011;66752;48.576;8.876;2023-03-15T09:29:15;3.50;;;1.20;;
77432;SDS011;66752;48.576;8.876;2023-03-15T09:31:41;6.35;;;1.48;;
77432;SDS011;66752;48.576;8.876;2023-03-15T09:34:07;4.25;;;1.10;;
77432;SDS011;66752;48.576;8.876;2023-03-15T09:36:33;4.10;;;1.40;;
77432;SDS011;66752;48.576;8.876;2023-03-15T09:38:59;5.95;;;1.30;;
77432;SDS011;66752;48.576;8.876;2023-03-15T09:47:06;4.75;;;1.20;;
77432;SDS011;66752;48.576;8.876;2023-03-15T09:51:55;4.15;;;1.08;;
77432;SDS011;66752;48.576;8.876;2023-03-15T09:54:45;4.07;;;1.35;;
77432;SDS011;66752;48.576;8.876;2023-03-15T09:59:37;4.00;;;1.10;;
77432;SDS011;66752;48.576;8.876;2023-03-15T10:05:23;3.97;;;1.30;;
77432;SDS011;66752;48.576;8.876;2023-03-15T10:10:21;4.35;;;1.00;;
77432;SDS011;66752;48.576;8.876;2023-03-15T10:12:50;4.68;;;1.10;;
77432;SDS011;66752;48.576;8.876;2023-03-15T10:20:39;5.18;;;1.10;;
77432;SDS011;66752;48.576;8.876;2023-03-15T10:25:32;2.90;;;1.02;;
77432;SDS011;66752;48.576;8.876;2023-03-15T10:30:26;3.63;;;1.25;;
77432;SDS011;66752;48.576;8.876;2023-03-15T10:32:57;4.97;;;1.15;;
77432;SDS011;66752;48.576;8.876;2023-03-15T10:35:24;3.50;;;1.25;;
77432;SDS011;66752;48.576;8.876;2023-03-15T10:37:50;3.40;;;0.82;;
77432;SDS011;66752;48.576;8.876;2023-03-15T10:40:36;5.10;;;1.20;;
77432;SDS011;66752;48.576;8.876;2023-03-15T10:45:28;4.20;;;0.80;;
77432;SDS011;66752;48.576;8.876;2023-03-15T10:47:54;3.60;;;0.90;;
77432;SDS011;66752;48.576;8.876;2023-03-15T10:50:25;7.38;;;1.40;;
77432;SDS011;66752;48.576;8.876;2023-03-15T10:52:53;5.05;;;1.20;;
77432;SDS011;66752;48.576;8.876;2023-03-15T10:55:26;3.03;;;1.02;;
77432;SDS011;66752;48.576;8.876;2023-03-15T10:57:54;4.95;;;1.13;;
77432;SDS011;66752;48.576;8.876;2023-03-15T11:00:25;4.68;;;1.02;;
77432;SDS011;66752;48.576;8.876;2023-03-15T11:05:30;4.65;;;1.45;;
77432;SDS011;66752;48.576;8.876;2023-03-15T11:07:57;3.53;;;0.65;;
77432;SDS011;66752;48.576;8.876;2023-03-15T11:10:25;2.60;;;0.77;;
77432;SDS011;66752;48.576;8.876;2023-03-15T11:15:37;3.35;;;0.93;;
77432;SDS011;66752;48.576;8.876;2023-03-15T11:18:04;2.45;;;0.80;;
77432;SDS011;66752;48.576;8.876;2023-03-15T11:20:31;2.33;;;0.68;;
77432;SDS011;66752;48.576;8.876;2023-03-15T11:22:59;1.98;;;0.80;;
77432;SDS011;66752;48.576;8.876;2023-03-15T11:25:27;3.55;;;0.82;;
77432;SDS011;66752;48.576;8.876;2023-03-15T11:27:55;2.90;;;0.70;;
77432;SDS011;66752;48.576;8.876;2023-03-15T11:30:23;5.07;;;0.90;;
77432;SDS011;66752;48.576;8.876;2023-03-15T11:32:50;2.95;;;0.90;;
77432;SDS011;66752;48.576;8.876;2023-03-15T11:35:18;4.55;;;0.70;;
77432;SDS011;66752;48.576;8.876;2023-03-15T11:37:48;4.57;;;1.30;;
77432;SDS011;66752;48.576;8.876;2023-03-15T11:40:20;2.60;;;0.98;;
77432;SDS011;66752;48.576;8.876;2023-03-15T11:48:13;4.57;;;0.70;;
77432;SDS011;66752;48.576;8.876;2023-03-15T11:50:42;2.50;;;0.90;;
77432;SDS011;66752;48.576;8.876;2023-03-15T11:53:09;3.55;;;0.80;;
77432;SDS011;66752;48.576;8.876;2023-03-15T12:00:47;3.35;;;0.95;;
77432;SDS011;66752;48.576;8.876;2023-03-15T12:03:24;2.53;;;0.63;;
77432;SDS011;66752;48.576;8.876;2023-03-15T12:05:52;1.45;;;0.60;;
77432;SDS011;66752;48.576;8.876;2023-03-15T12:08:44;3.15;;;0.95;;
77432;SDS011;66752;48.576;8.876;2023-03-15T12:13:36;2.40;;;0.80;;
77432;SDS011;66752;48.576;8.876;2023-03-15T12:16:04;3.60;;;0.90;;
77432;SDS011;66752;48.576;8.876;2023-03-15T12:18:32;4.25;;;0.98;;
77432;SDS011;66752;48.576;8.876;2023-03-15T12:21:08;3.63;;;0.80;;
77432;SDS011;66752;48.576;8.876;2023-03-15T12:23:36;2.25;;;0.95;;
77432;SDS011;66752;48.576;8.876;2023-03-15T12:28:32;4.47;;;0.80;;
77432;SDS011;66752;48.576;8.876;2023-03-15T12:30:59;2.83;;;0.70;;
77432;SDS011;66752;48.576;8.876;2023-03-15T12:33:26;4.43;;;0.70;;
77432;SDS011;66752;48.576;8.876;2023-03-15T12:36:07;3.08;;;0.90;;
77432;SDS011;66752;48.576;8.876;2023-03-15T12:38:35;3.17;;;1.00;;
77432;SDS011;66752;48.576;8.876;2023-03-15T12:41:05;1.88;;;0.77;;
77432;SDS011;66752;48.576;8.876;2023-03-15T12:43:39;2.72;;;0.80;;
77432;SDS011;66752;48.576;8.876;2023-03-15T12:46:07;4.13;;;0.88;;
77432;SDS011;66752;48.576;8.876;2023-03-15T12:49:11;3.85;;;0.73;;
77432;SDS011;66752;48.576;8.876;2023-03-15T12:51:42;3.70;;;0.95;;
77432;SDS011;66752;48.576;8.876;2023-03-15T12:54:09;1.55;;;0.52;;
77432;SDS011;66752;48.576;8.876;2023-03-15T12:56:42;3.50;;;0.68;;
77432;SDS011;66752;48.576;8.876;2023-03-15T13:01:41;2.90;;;0.90;;
77432;SDS011;66752;48.576;8.876;2023-03-15T13:04:08;1.85;;;0.73;;
77432;SDS011;66752;48.576;8.876;2023-03-15T13:21:27;1.85;;;0.80;;
77432;SDS011;66752;48.576;8.876;2023-03-15T13:23:56;2.72;;;0.88;;
77432;SDS011;66752;48.576;8.876;2023-03-15T13:26:32;3.85;;;0.82;;
77432;SDS011;66752;48.576;8.876;2023-03-15T13:31:30;4.30;;;1.00;;
77432;SDS011;66752;48.576;8.876;2023-03-15T13:33:57;2.42;;;0.75;;
77432;SDS011;66752;48.576;8.876;2023-03-15T13:36:43;5.22;;;1.10;;
77432;SDS011;66752;48.576;8.876;2023-03-15T13:41:37;2.95;;;1.00;;
77432;SDS011;66752;48.576;8.876;2023-03-15T13:44:04;5.30;;;0.95;;
77432;SDS011;66752;48.576;8.876;2023-03-15T13:46:35;2.63;;;0.77;;
77432;SDS011;66752;48.576;8.876;2023-03-15T13:49:01;3.40;;;1.10;;
77432;SDS011;66752;48.576;8.876;2023-03-15T13:51:29;5.07;;;1.15;;
77432;SDS011;66752;48.576;8.876;2023-03-15T13:53:59;2.58;;;0.93;;
77432;SDS011;66752;48.576;8.876;2023-03-15T13:56:33;6.18;;;0.98;;
77432;SDS011;66752;48.576;8.876;2023-03-15T14:01:28;4.57;;;1.17;;
77432;SDS011;66752;48.576;8.876;2023-03-15T14:03:59;4.65;;;1.05;;
77432;SDS011;66752;48.576;8.876;2023-03-15T14:06:27;4.57;;;1.20;;
77432;SDS011;66752;48.576;8.876;2023-03-15T14:08:54;4.93;;;1.33;;
77432;SDS011;66752;48.576;8.876;2023-03-15T14:13:54;6.30;;;1.13;;
77432;SDS011;66752;48.576;8.876;2023-03-15T14:18:50;4.70;;;1.40;;
77432;SDS011;66752;48.576;8.876;2023-03-15T14:21:20;4.03;;;1.10;;
77432;SDS011;66752;48.576;8.876;2023-03-15T14:23:53;3.45;;;1.00;;
77432;SDS011;66752;48.576;8.876;2023-03-15T14:26:22;4.22;;;1.08;;
77432;SDS011;66752;48.576;8.876;2023-03-15T14:28:59;2.75;;;1.05;;
77432;SDS011;66752;48.576;8.876;2023-03-15T14:31:29;4.45;;;1.10;;
77432;SDS011;66752;48.576;8.876;2023-03-15T14:34:06;3.63;;;1.35;;
77432;SDS011;66752;48.576;8.876;2023-03-15T14:36:38;3.75;;;1.10;;
77432;SDS011;66752;48.576;8.876;2023-03-15T14:39:11;4.25;;;1.20;;
77432;SDS011;66752;48.576;8.876;2023-03-15T14:41:41;4.75;;;1.35;;
77432;SDS011;66752;48.576;8.876;2023-03-15T14:44:07;3.95;;;1.13;;
77432;SDS011;66752;48.576;8.876;2023-03-15T14:46:33;2.95;;;1.00;;
77432;SDS011;66752;48.576;8.876;2023-03-15T14:48:59;4.57;;;1.20;;
77432;SDS011;66752;48.576;8.876;2023-03-15T14:51:26;3.67;;;1.30;;
77432;SDS011;66752;48.576;8.876;2023-03-15T14:53:53;2.88;;;1.02;;
77432;SDS011;66752;48.576;8.876;2023-03-15T14:56:22;3.10;;;1.00;;
77432;SDS011;66752;48.576;8.876;2023-03-15T14:58:48;4.05;;;1.00;;
77432;SDS011;66752;48.576;8.876;2023-03-15T15:01:18;5.25;;;1.20;;
77432;SDS011;66752;48.576;8.876;2023-03-15T15:04:08;2.88;;;1.05;;
77432;SDS011;66752;48.576;8.876;2023-03-15T15:06:32;6.28;;;1.45;;
77432;SDS011;66752;48.576;8.876;2023-03-15T15:09:00;5.55;;;1.55;;
77432;SDS011;66752;48.576;8.876;2023-03-15T15:11:27;4.60;;;1.88;;
77432;SDS011;66752;48.576;8.876;2023-03-15T15:13:53;4.40;;;1.58;;
77432;SDS011;66752;48.576;8.876;2023-03-15T15:16:20;4.53;;;1.42;;
77432;SDS011;66752;48.576;8.876;2023-03-15T15:18:47;6.93;;;1.33;;
77432;SDS011;66752;48.576;8.876;2023-03-15T15:21:14;4.07;;;1.40;;
77432;SDS011;66752;48.576;8.876;2023-03-15T15:23:43;4.80;;;1.50;;
77432;SDS011;66752;48.576;8.876;2023-03-15T15:26:20;4.93;;;1.63;;
77432;SDS011;66752;48.576;8.876;2023-03-15T15:28:47;4.28;;;1.40;;
77432;SDS011;66752;48.576;8.876;2023-03-15T15:31:15;9.02;;;2.95;;
77432;SDS011;66752;48.576;8.876;2023-03-15T15:33:41;9.40;;;3.10;;
77432;SDS011;66752;48.576;8.876;2023-03-15T15:36:11;5.65;;;1.67;;
77432;SDS011;66752;48.576;8.876;2023-03-15T15:38:38;14.38;;;4.50;;
77432;SDS011;66752;48.576;8.876;2023-03-15T15:41:04;8.55;;;3.42;;
77432;SDS011;66752;48.576;8.876;2023-03-15T15:43:30;4.07;;;1.67;;
77432;SDS011;66752;48.576;8.876;2023-03-15T15:45:56;4.30;;;1.60;;
77432;SDS011;66752;48.576;8.876;2023-03-15T15:48:22;4.55;;;1.50;;
77432;SDS011;66752;48.576;8.876;2023-03-15T15:50:48;4.93;;;1.70;;
77432;SDS011;66752;48.576;8.876;2023-03-15T15:53:15;6.70;;;2.03;;
77432;SDS011;66752;48.576;8.876;2023-03-15T15:55:41;6.15;;;2.50;;
77432;SDS011;66752;48.576;8.876;2023-03-15T15:58:08;5.97;;;2.42;;
77432;SDS011;66752;48.576;8.876;2023-03-15T16:00:35;6.35;;;2.53;;
77432;SDS011;66752;48.576;8.876;2023-03-15T16:03:01;5.10;;;2.08;;
77432;SDS011;66752;48.576;8.876;2023-03-15T16:05:27;6.28;;;2.20;;
77432;SDS011;66752;48.576;8.876;2023-03-15T16:07:55;4.65;;;2.15;;
77432;SDS011;66752;48.576;8.876;2023-03-15T16:10:22;6.30;;;1.98;;
77432;SDS011;66752;48.576;8.876;2023-03-15T16:12:49;6.03;;;2.03;;
77432;SDS011;66752;48.576;8.876;2023-03-15T16:17:41;4.85;;;2.20;;
77432;SDS011;66752;48.576;8.876;2023-03-15T16:20:08;4.60;;;1.70;;
77432;SDS011;66752;48.576;8.876;2023-03-15T16:22:36;7.05;;;2.17;;
77432;SDS011;66752;48.576;8.876;2023-03-15T16:25:02;4.53;;;1.92;;
77432;SDS011;66752;48.576;8.876;2023-03-15T16:27:29;4.50;;;1.48;;
77432;SDS011;66752;48.576;8.876;2023-03-15T16:29:55;3.83;;;1.58;;
77432;SDS011;66752;48.576;8.876;2023-03-15T16:32:23;4.20;;;1.40;;